sensor_id;sensor_type;location;lat;lon;timestamp;P1;durP1;ratioP1;P2;durP2;ratioP2
78072;SDS011;67281;48.770;11.440;2023-10-09T00:02:09;11.07;;;5.85;;
78072;SDS011;67281;48.770;11.440;2023-10-09T00:04:41;12.50;;;6.05;;
78072;SDS011;67281;48.770;11.440;2023-10-09T00:07:09;9.88;;;6.38;;
78072;SDS011;67281;48.770;11.440;2023-10-09T00:09:38;11.60;;;5.93;;
78072;SDS011;67281;48.770;11.440;2023-10-09T00:12:18;11.38;;;6.80;;
78072;SDS011;67281;48.770;11.440;2023-10-09T00:14:50;10.98;;;6.32;;
78072;SDS011;67281;48.770;11.440;2023-10-09T00:17:23;11.50;;;6.40;;
78072;SDS011;67281;48.770;11.440;2023-10-09T00:19:50;12.48;;;5.97;;
78072;SDS011;67281;48.770;11.440;2023-10-09T00:22:18;9.50;;;6.13;;
78072;SDS011;67281;48.770;11.440;2023-10-09T00:24:57;9.87;;;6.10;;
78072;SDS011;67281;48.770;11.440;2023-10-09T00:27:38;10.57;;;6.22;;
78072;SDS011;67281;48.770;11.440;2023-10-09T00:30:13;10.95;;;5.93;;
78072;SDS011;67281;48.770;11.440;2023-10-09T00:32:45;11.93;;;6.00;;
78072;SDS011;67281;48.770;11.440;2023-10-09T00:35:26;10.98;;;6.22;;
78072;SDS011;67281;48.770;11.440;2023-10-09T00:38:04;11.83;;;6.37;;
78072;SDS011;67281;48.770;11.440;2023-10-09T00:40:50;11.03;;;6.07;;
78072;SDS011;67281;48.770;11.440;2023-10-09T00:43:29;9.43;;;5.67;;
78072;SDS011;67281;48.770;11.440;2023-10-09T00:45:57;11.40;;;6.37;;
78072;SDS011;67281;48.770;11.440;2023-10-09T00:48:36;12.67;;;6.57;;
78072;SDS011;67281;48.770;11.440;2023-10-09T00:51:07;9.25;;;6.07;;
78072;SDS011;67281;48.770;11.440;2023-10-09T00:53:46;12.23;;;6.67;;
78072;SDS011;67281;48.770;11.440;2023-10-09T00:56:22;10.70;;;6.50;;
78072;SDS011;67281;48.770;11.440;2023-10-09T00:58:58;11.80;;;6.97;;
78072;SDS011;67281;48.770;11.440;2023-10-09T01:01:40;9.82;;;6.22;;
78072;SDS011;67281;48.770;11.440;2023-10-09T01:04:12;12.37;;;7.00;;
78072;SDS011;67281;48.770;11.440;2023-10-09T01:06:43;12.33;;;7.03;;
78072;SDS011;67281;48.770;11.440;2023-10-09T01:09:11;12.77;;;6.90;;
78072;SDS011;67281;48.770;11.440;2023-10-09T01:11:41;12.03;;;6.90;;
78072;SDS011;67281;48.770;11.440;2023-10-09T01:14:34;13.00;;;7.13;;
78072;SDS011;67281;48.770;11.440;2023-10-09T01:17:04;12.70;;;6.87;;
78072;SDS011;67281;48.770;11.440;2023-10-09T01:19:45;12.40;;;6.90;;
78072;SDS011;67281;48.770;11.440;2023-10-09T01:22:13;12.40;;;6.95;;
78072;SDS011;67281;48.770;11.440;2023-10-09T01:24:41;10.43;;;6.15;;
78072;SDS011;67281;48.770;11.440;2023-10-09T01:27:10;10.10;;;6.15;;
78072;SDS011;67281;48.770;11.440;2023-10-09T01:29:43;12.53;;;6.10;;
78072;SDS011;67281;48.770;11.440;2023-10-09T01:32:13;9.27;;;6.50;;
78072;SDS011;67281;48.770;11.440;2023-10-09T01:34:43;11.15;;;6.65;;
78072;SDS011;67281;48.770;11.440;2023-10-09T01:37:20;9.35;;;6.40;;
78072;SDS011;67281;48.770;11.440;2023-10-09T01:39:56;11.97;;;6.67;;
78072;SDS011;67281;48.770;11.440;2023-10-09T01:42:46;10.45;;;6.53;;
78072;SDS011;67281;48.770;11.440;2023-10-09T01:45:13;11.77;;;7.10;;
78072;SDS011;67281;48.770;11.440;2023-10-09T01:47:47;11.57;;;7.43;;
78072;SDS011;67281;48.770;11.440;2023-10-09T01:50:21;13.60;;;7.07;;
78072;SDS011;67281;48.770;11.440;2023-10-09T01:52:51;12.73;;;7.20;;
78072;SDS011;67281;48.770;11.440;2023-10-09T01:55:18;9.83;;;6.73;;
78072;SDS011;67281;48.770;11.440;2023-10-09T01:58:02;11.77;;;7.03;;
78072;SDS011;67281;48.770;11.440;2023-10-09T02:00:48;14.07;;;7.73;;
78072;SDS011;67281;48.770;11.440;2023-10-09T02:03:21;12.67;;;7.30;;
78072;SDS011;67281;48.770;11.440;2023-10-09T02:05:51;11.60;;;6.90;;
78072;SDS011;67281;48.770;11.440;2023-10-09T02:08:29;11.43;;;7.00;;
78072;SDS011;67281;48.770;11.440;2023-10-09T02:10:56;12.87;;;7.30;;
78072;SDS011;67281;48.770;11.440;2023-10-09T02:13:23;12.07;;;7.20;;
78072;SDS011;67281;48.770;11.440;2023-10-09T02:15:56;12.83;;;7.10;;
78072;SDS011;67281;48.770;11.440;2023-10-09T02:18:40;13.30;;;7.47;;
78072;SDS011;67281;48.770;11.440;2023-10-09T02:21:19;14.13;;;7.07;;
78072;SDS011;67281;48.770;11.440;2023-10-09T02:24:01;11.47;;;7.00;;
78072;SDS011;67281;48.770;11.440;2023-10-09T02:26:34;13.00;;;7.37;;
78072;SDS011;67281;48.770;11.440;2023-10-09T02:29:33;13.07;;;7.22;;
78072;SDS011;67281;48.770;11.440;2023-10-09T02:32:01;13.70;;;7.80;;
78072;SDS011;67281;48.770;11.440;2023-10-09T02:34:40;11.43;;;7.70;;
78072;SDS011;67281;48.770;11.440;2023-10-09T02:37:07;13.17;;;7.87;;
78072;SDS011;67281;48.770;11.440;2023-10-09T02:39:39;11.02;;;7.80;;
78072;SDS011;67281;48.770;11.440;2023-10-09T02:42:14;11.27;;;7.63;;
78072;SDS011;67281;48.770;11.440;2023-10-09T02:44:41;14.52;;;8.30;;
78072;SDS011;67281;48.770;11.440;2023-10-09T02:47:17;14.83;;;7.67;;
78072;SDS011;67281;48.770;11.440;2023-10-09T02:49:47;12.63;;;7.73;;
78072;SDS011;67281;48.770;11.440;2023-10-09T02:52:17;15.82;;;8.35;;
78072;SDS011;67281;48.770;11.440;2023-10-09T02:54:52;11.93;;;7.55;;
78072;SDS011;67281;48.770;11.440;2023-10-09T02:57:27;14.20;;;8.13;;
78072;SDS011;67281;48.770;11.440;2023-10-09T03:00:06;13.90;;;8.15;;
78072;SDS011;67281;48.770;11.440;2023-10-09T03:02:45;14.37;;;8.13;;
78072;SDS011;67281;48.770;11.440;2023-10-09T03:05:16;12.37;;;8.00;;
78072;SDS011;67281;48.770;11.440;2023-10-09T03:07:45;17.27;;;8.73;;
78072;SDS011;67281;48.770;11.440;2023-10-09T03:10:11;12.80;;;8.60;;
78072;SDS011;67281;48.770;11.440;2023-10-09T03:12:38;13.85;;;8.50;;
78072;SDS011;67281;48.770;11.440;2023-10-09T03:15:06;19.27;;;9.27;;
78072;SDS011;67281;48.770;11.440;2023-10-09T03:17:35;15.67;;;9.07;;
78072;SDS011;67281;48.770;11.440;2023-10-09T03:20:05;16.20;;;9.97;;
78072;SDS011;67281;48.770;11.440;2023-10-09T03:22:40;14.95;;;9.65;;
78072;SDS011;67281;48.770;11.440;2023-10-09T03:25:08;17.17;;;9.63;;
78072;SDS011;67281;48.770;11.440;2023-10-09T03:27:41;17.37;;;9.77;;
78072;SDS011;67281;48.770;11.440;2023-10-09T03:30:14;16.73;;;9.53;;
78072;SDS011;67281;48.770;11.440;2023-10-09T03:32:50;18.35;;;10.38;;
78072;SDS011;67281;48.770;11.440;2023-10-09T03:35:18;18.50;;;10.70;;
78072;SDS011;67281;48.770;11.440;2023-10-09T03:37:56;17.53;;;11.53;;
78072;SDS011;67281;48.770;11.440;2023-10-09T03:40:27;17.83;;;11.32;;
78072;SDS011;67281;48.770;11.440;2023-10-09T03:42:54;21.27;;;10.97;;
78072;SDS011;67281;48.770;11.440;2023-10-09T03:45:21;19.57;;;10.80;;
78072;SDS011;67281;48.770;11.440;2023-10-09T03:47:52;18.13;;;10.50;;
78072;SDS011;67281;48.770;11.440;2023-10-09T03:50:51;20.40;;;10.13;;
78072;SDS011;67281;48.770;11.440;2023-10-09T03:53:35;19.55;;;10.60;;
78072;SDS011;67281;48.770;11.440;2023-10-09T03:56:04;18.70;;;10.67;;
78072;SDS011;67281;48.770;11.440;2023-10-09T03:58:42;20.92;;;10.25;;
78072;SDS011;67281;48.770;11.440;2023-10-09T04:01:12;19.43;;;10.47;;
78072;SDS011;67281;48.770;11.440;2023-10-09T04:03:56;21.30;;;10.38;;
78072;SDS011;67281;48.770;11.440;2023-10-09T04:06:27;19.10;;;9.93;;
78072;SDS011;67281;48.770;11.440;2023-10-09T04:08:59;25.85;;;11.75;;
78072;SDS011;67281;48.770;11.440;2023-10-09T04:11:40;19.73;;;10.60;;
78072;SDS011;67281;48.770;11.440;2023-10-09T04:14:13;25.30;;;10.93;;
78072;SDS011;67281;48.770;11.440;2023-10-09T04:16:51;20.30;;;9.93;;
78072;SDS011;67281;48.770;11.440;2023-10-09T04:19:18;22.88;;;10.15;;
78072;SDS011;67281;48.770;11.440;2023-10-09T04:21:48;21.27;;;9.63;;
78072;SDS011;67281;48.770;11.440;2023-10-09T04:24:15;18.00;;;10.13;;
78072;SDS011;67281;48.770;11.440;2023-10-09T04:26:43;20.80;;;9.70;;
78072;SDS011;67281;48.770;11.440;2023-10-09T04:29:12;22.30;;;9.73;;
78072;SDS011;67281;48.770;11.440;2023-10-09T04:31:53;23.20;;;10.33;;
78072;SDS011;67281;48.770;11.440;2023-10-09T04:34:27;21.00;;;10.27;;
78072;SDS011;67281;48.770;11.440;2023-10-09T04:36:57;21.80;;;9.10;;
78072;SDS011;67281;48.770;11.440;2023-10-09T04:39:27;19.80;;;9.53;;
78072;SDS011;67281;48.770;11.440;2023-10-09T04:41:57;21.43;;;10.13;;
78072;SDS011;67281;48.770;11.440;2023-10-09T04:44:43;20.83;;;10.23;;
78072;SDS011;67281;48.770;11.440;2023-10-09T04:47:29;21.47;;;9.60;;
78072;SDS011;67281;48.770;11.440;2023-10-09T04:50:25;20.77;;;9.90;;
78072;SDS011;67281;48.770;11.440;2023-10-09T04:52:58;18.00;;;9.40;;
78072;SDS011;67281;48.770;11.440;2023-10-09T04:55:45;22.40;;;9.20;;
78072;SDS011;67281;48.770;11.440;2023-10-09T04:58:21;22.97;;;9.77;;
78072;SDS011;67281;48.770;11.440;2023-10-09T05:00:52;21.60;;;9.43;;
78072;SDS011;67281;48.770;11.440;2023-10-09T05:03:25;17.53;;;9.63;;
78072;SDS011;67281;48.770;11.440;2023-10-09T05:06:09;25.75;;;10.02;;
78072;SDS011;67281;48.770;11.440;2023-10-09T05:08:56;23.00;;;9.43;;
78072;SDS011;67281;48.770;11.440;2023-10-09T05:11:35;21.70;;;9.43;;
78072;SDS011;67281;48.770;11.440;2023-10-09T05:14:20;22.60;;;9.80;;
78072;SDS011;67281;48.770;11.440;2023-10-09T05:16:54;18.03;;;9.50;;
78072;SDS011;67281;48.770;11.440;2023-10-09T05:19:22;20.13;;;8.77;;
78072;SDS011;67281;48.770;11.440;2023-10-09T05:22:09;23.30;;;9.37;;
78072;SDS011;67281;48.770;11.440;2023-10-09T05:24:57;19.80;;;8.77;;
78072;SDS011;67281;48.770;11.440;2023-10-09T05:27:27;21.57;;;9.00;;
78072;SDS011;67281;48.770;11.440;2023-10-09T05:30:17;21.53;;;9.30;;
78072;SDS011;67281;48.770;11.440;2023-10-09T05:32:54;24.80;;;8.70;;
78072;SDS011;67281;48.770;11.440;2023-10-09T05:35:25;21.70;;;8.67;;
78072;SDS011;67281;48.770;11.440;2023-10-09T05:38:07;22.27;;;9.20;;
78072;SDS011;67281;48.770;11.440;2023-10-09T05:40:50;22.53;;;9.40;;
78072;SDS011;67281;48.770;11.440;2023-10-09T05:43:31;27.27;;;8.73;;
78072;SDS011;67281;48.770;11.440;2023-10-09T05:46:17;23.17;;;8.57;;
78072;SDS011;67281;48.770;11.440;2023-10-09T05:48:44;21.77;;;9.17;;
78072;SDS011;67281;48.770;11.440;2023-10-09T05:51:10;23.90;;;8.63;;
78072;SDS011;67281;48.770;11.440;2023-10-09T05:54:00;21.33;;;8.57;;
78072;SDS011;67281;48.770;11.440;2023-10-09T05:56:59;19.57;;;9.13;;
78072;SDS011;67281;48.770;11.440;2023-10-09T05:59:46;21.67;;;8.80;;
78072;SDS011;67281;48.770;11.440;2023-10-09T06:02:31;18.80;;;8.17;;
78072;SDS011;67281;48.770;11.440;2023-10-09T06:05:27;24.15;;;8.80;;
78072;SDS011;67281;48.770;11.440;2023-10-09T06:08:18;19.50;;;8.53;;
78072;SDS011;67281;48.770;11.440;2023-10-09T06:10:51;26.23;;;8.97;;
78072;SDS011;67281;48.770;11.440;2023-10-09T06:13:32;21.63;;;8.30;;
78072;SDS011;67281;48.770;11.440;2023-10-09T06:16:12;25.80;;;8.75;;
78072;SDS011;67281;48.770;11.440;2023-10-09T06:18:57;21.63;;;8.07;;
78072;SDS011;67281;48.770;11.440;2023-10-09T06:21:56;21.80;;;8.00;;
78072;SDS011;67281;48.770;11.440;2023-10-09T06:24:30;21.40;;;8.10;;
78072;SDS011;67281;48.770;11.440;2023-10-09T06:27:09;24.20;;;8.47;;
78072;SDS011;67281;48.770;11.440;2023-10-09T06:29:36;25.17;;;8.57;;
78072;SDS011;67281;48.770;11.440;2023-10-09T06:32:06;16.90;;;7.27;;
78072;SDS011;67281;48.770;11.440;2023-10-09T06:35:02;22.85;;;7.50;;
78072;SDS011;67281;48.770;11.440;2023-10-09T06:37:46;20.77;;;8.03;;
78072;SDS011;67281;48.770;11.440;2023-10-09T06:40:32;22.27;;;7.70;;
78072;SDS011;67281;48.770;11.440;2023-10-09T06:43:03;21.67;;;7.88;;
78072;SDS011;67281;48.770;11.440;2023-10-09T06:45:41;20.07;;;8.00;;
78072;SDS011;67281;48.770;11.440;2023-10-09T06:48:12;20.25;;;7.38;;
78072;SDS011;67281;48.770;11.440;2023-10-09T06:51:01;24.10;;;7.55;;
78072;SDS011;67281;48.770;11.440;2023-10-09T06:53:53;24.50;;;7.57;;
78072;SDS011;67281;48.770;11.440;2023-10-09T06:56:20;25.02;;;7.80;;
78072;SDS011;67281;48.770;11.440;2023-10-09T06:58:55;23.92;;;7.97;;
78072;SDS011;67281;48.770;11.440;2023-10-09T07:01:24;21.77;;;7.53;;
78072;SDS011;67281;48.770;11.440;2023-10-09T07:04:06;24.73;;;7.90;;
78072;SDS011;67281;48.770;11.440;2023-10-09T07:06:50;20.40;;;7.43;;
78072;SDS011;67281;48.770;11.440;2023-10-09T07:09:23;22.77;;;7.63;;
78072;SDS011;67281;48.770;11.440;2023-10-09T07:11:54;22.67;;;7.78;;
78072;SDS011;67281;48.770;11.440;2023-10-09T07:14:21;16.83;;;6.90;;
78072;SDS011;67281;48.770;11.440;2023-10-09T07:19:44;24.60;;;6.85;;
78072;SDS011;67281;48.770;11.440;2023-10-09T07:22:12;21.50;;;7.05;;
78072;SDS011;67281;48.770;11.440;2023-10-09T07:24:49;21.63;;;7.25;;
78072;SDS011;67281;48.770;11.440;2023-10-09T07:27:27;24.00;;;7.28;;
78072;SDS011;67281;48.770;11.440;2023-10-09T07:30:13;16.35;;;6.45;;
78072;SDS011;67281;48.770;11.440;2023-10-09T07:35:32;16.73;;;7.63;;
78072;SDS011;67281;48.770;11.440;2023-10-09T07:40:47;20.30;;;6.55;;
78072;SDS011;67281;48.770;11.440;2023-10-09T07:43:34;22.02;;;6.70;;
78072;SDS011;67281;48.770;11.440;2023-10-09T07:46:06;20.83;;;7.43;;
78072;SDS011;67281;48.770;11.440;2023-10-09T07:48:52;20.88;;;7.00;;
78072;SDS011;67281;48.770;11.440;2023-10-09T07:51:20;19.60;;;7.15;;
78072;SDS011;67281;48.770;11.440;2023-10-09T07:53:50;23.13;;;6.65;;
78072;SDS011;67281;48.770;11.440;2023-10-09T07:56:24;22.17;;;7.32;;
78072;SDS011;67281;48.770;11.440;2023-10-09T07:58:51;22.67;;;6.55;;
78072;SDS011;67281;48.770;11.440;2023-10-09T08:01:18;24.15;;;7.80;;
78072;SDS011;67281;48.770;11.440;2023-10-09T08:04:03;20.05;;;6.70;;
78072;SDS011;67281;48.770;11.440;2023-10-09T08:06:38;19.58;;;6.97;;
78072;SDS011;67281;48.770;11.440;2023-10-09T08:09:05;17.23;;;6.75;;
78072;SDS011;67281;48.770;11.440;2023-10-09T08:11:48;21.63;;;6.63;;
78072;SDS011;67281;48.770;11.440;2023-10-09T08:14:41;15.57;;;6.43;;
78072;SDS011;67281;48.770;11.440;2023-10-09T08:17:09;18.30;;;6.80;;
78072;SDS011;67281;48.770;11.440;2023-10-09T08:19:45;20.90;;;6.72;;
78072;SDS011;67281;48.770;11.440;2023-10-09T08:22:20;23.40;;;7.20;;
78072;SDS011;67281;48.770;11.440;2023-10-09T08:24:51;28.08;;;6.63;;
78072;SDS011;67281;48.770;11.440;2023-10-09T08:27:25;22.88;;;6.32;;
78072;SDS011;67281;48.770;11.440;2023-10-09T08:29:58;22.38;;;6.80;;
78072;SDS011;67281;48.770;11.440;2023-10-09T08:32:48;20.95;;;6.20;;
78072;SDS011;67281;48.770;11.440;2023-10-09T08:35:33;20.65;;;6.38;;
78072;SDS011;67281;48.770;11.440;2023-10-09T08:38:02;17.33;;;6.70;;
78072;SDS011;67281;48.770;11.440;2023-10-09T08:40:35;21.83;;;6.55;;
78072;SDS011;67281;48.770;11.440;2023-10-09T08:43:09;28.70;;;6.93;;
78072;SDS011;67281;48.770;11.440;2023-10-09T08:45:53;21.70;;;6.28;;
78072;SDS011;67281;48.770;11.440;2023-10-09T08:48:28;22.63;;;6.20;;
78072;SDS011;67281;48.770;11.440;2023-10-09T08:50:55;20.17;;;5.82;;
78072;SDS011;67281;48.770;11.440;2023-10-09T08:53:23;24.63;;;6.40;;
78072;SDS011;67281;48.770;11.440;2023-10-09T08:55:50;16.20;;;5.72;;
78072;SDS011;67281;48.770;11.440;2023-10-09T08:58:20;28.80;;;6.97;;
78072;SDS011;67281;48.770;11.440;2023-10-09T09:00:51;20.45;;;5.40;;
78072;SDS011;67281;48.770;11.440;2023-10-09T09:03:22;17.60;;;5.85;;
78072;SDS011;67281;48.770;11.440;2023-10-09T09:06:03;20.88;;;5.45;;
78072;SDS011;67281;48.770;11.440;2023-10-09T09:08:33;26.17;;;6.50;;
78072;SDS011;67281;48.770;11.440;2023-10-09T09:11:10;17.08;;;5.47;;
78072;SDS011;67281;48.770;11.440;2023-10-09T09:13:39;21.38;;;5.72;;
78072;SDS011;67281;48.770;11.440;2023-10-09T09:21:47;24.52;;;5.97;;
78072;SDS011;67281;48.770;11.440;2023-10-09T09:24:25;19.45;;;5.60;;
78072;SDS011;67281;48.770;11.440;2023-10-09T09:26:53;23.40;;;5.93;;
78072;SDS011;67281;48.770;11.440;2023-10-09T09:32:06;19.45;;;5.40;;
78072;SDS011;67281;48.770;11.440;2023-10-09T09:34:50;15.60;;;5.43;;
78072;SDS011;67281;48.770;11.440;2023-10-09T09:37:21;20.15;;;5.90;;
78072;SDS011;67281;48.770;11.440;2023-10-09T09:39:57;26.67;;;6.93;;
78072;SDS011;67281;48.770;11.440;2023-10-09T09:42:28;21.23;;;5.90;;
78072;SDS011;67281;48.770;11.440;2023-10-09T09:45:01;21.40;;;6.40;;
78072;SDS011;67281;48.770;11.440;2023-10-09T09:47:31;17.85;;;6.32;;
78072;SDS011;67281;48.770;11.440;2023-10-09T09:50:03;21.63;;;6.20;;
78072;SDS011;67281;48.770;11.440;2023-10-09T09:52:39;17.02;;;5.60;;
78072;SDS011;67281;48.770;11.440;2023-10-09T09:55:07;26.42;;;6.47;;
78072;SDS011;67281;48.770;11.440;2023-10-09T09:57:49;23.02;;;6.97;;
78072;SDS011;67281;48.770;11.440;2023-10-09T10:00:19;20.50;;;6.15;;
78072;SDS011;67281;48.770;11.440;2023-10-09T10:03:18;25.13;;;5.55;;
78072;SDS011;67281;48.770;11.440;2023-10-09T10:05:55;22.00;;;5.57;;
78072;SDS011;67281;48.770;11.440;2023-10-09T10:08:23;29.63;;;5.60;;
78072;SDS011;67281;48.770;11.440;2023-10-09T10:11:00;16.58;;;5.97;;
78072;SDS011;67281;48.770;11.440;2023-10-09T10:21:34;14.25;;;4.47;;
78072;SDS011;67281;48.770;11.440;2023-10-09T10:27:15;22.52;;;5.85;;
78072;SDS011;67281;48.770;11.440;2023-10-09T10:35:21;16.52;;;5.35;;
78072;SDS011;67281;48.770;11.440;2023-10-09T10:43:40;23.08;;;5.60;;
78072;SDS011;67281;48.770;11.440;2023-10-09T10:46:21;20.27;;;5.80;;
78072;SDS011;67281;48.770;11.440;2023-10-09T10:49:06;25.58;;;6.18;;
78072;SDS011;67281;48.770;11.440;2023-10-09T10:51:48;20.33;;;6.32;;
78072;SDS011;67281;48.770;11.440;2023-10-09T10:54:20;21.75;;;5.82;;
78072;SDS011;67281;48.770;11.440;2023-10-09T10:57:00;20.85;;;5.60;;
78072;SDS011;67281;48.770;11.440;2023-10-09T10:59:30;22.33;;;5.40;;
78072;SDS011;67281;48.770;11.440;2023-10-09T11:02:09;22.98;;;6.07;;
78072;SDS011;67281;48.770;11.440;2023-10-09T11:04:37;23.33;;;5.40;;
78072;SDS011;67281;48.770;11.440;2023-10-09T11:07:11;22.35;;;5.57;;
78072;SDS011;67281;48.770;11.440;2023-10-09T11:09:52;20.00;;;5.40;;
78072;SDS011;67281;48.770;11.440;2023-10-09T11:12:29;24.30;;;6.45;;
78072;SDS011;67281;48.770;11.440;2023-10-09T11:15:09;19.00;;;5.63;;
78072;SDS011;67281;48.770;11.440;2023-10-09T11:18:04;20.42;;;5.47;;
78072;SDS011;67281;48.770;11.440;2023-10-09T11:20:55;19.95;;;5.30;;
78072;SDS011;67281;48.770;11.440;2023-10-09T11:23:30;24.80;;;5.57;;
78072;SDS011;67281;48.770;11.440;2023-10-09T11:26:01;26.00;;;5.80;;
78072;SDS011;67281;48.770;11.440;2023-10-09T11:32:26;25.00;;;5.90;;
78072;SDS011;67281;48.770;11.440;2023-10-09T11:34:47;19.30;;;5.63;;
78072;SDS011;67281;48.770;11.440;2023-10-09T11:37:22;21.02;;;6.75;;
78072;SDS011;67281;48.770;11.440;2023-10-09T11:40:29;20.13;;;5.55;;
78072;SDS011;67281;48.770;11.440;2023-10-09T11:43:20;19.05;;;5.32;;
78072;SDS011;67281;48.770;11.440;2023-10-09T11:46:09;24.85;;;5.70;;
78072;SDS011;67281;48.770;11.440;2023-10-09T11:49:01;26.05;;;5.70;;
78072;SDS011;67281;48.770;11.440;2023-10-09T11:52:07;16.85;;;5.65;;
78072;SDS011;67281;48.770;11.440;2023-10-09T11:54:35;26.85;;;5.78;;
78072;SDS011;67281;48.770;11.440;2023-10-09T11:57:02;26.48;;;5.40;;
78072;SDS011;67281;48.770;11.440;2023-10-09T11:59:30;23.85;;;6.22;;
78072;SDS011;67281;48.770;11.440;2023-10-09T12:02:04;19.85;;;5.75;;
78072;SDS011;67281;48.770;11.440;2023-10-09T12:04:33;20.65;;;5.60;;
78072;SDS011;67281;48.770;11.440;2023-10-09T12:07:01;20.02;;;5.60;;
78072;SDS011;67281;48.770;11.440;2023-10-09T12:09:36;25.38;;;5.80;;
78072;SDS011;67281;48.770;11.440;2023-10-09T12:12:04;21.52;;;6.00;;
78072;SDS011;67281;48.770;11.440;2023-10-09T12:14:33;19.45;;;5.78;;
78072;SDS011;67281;48.770;11.440;2023-10-09T12:17:00;22.33;;;6.03;;
78072;SDS011;67281;48.770;11.440;2023-10-09T12:19:36;22.05;;;5.60;;
78072;SDS011;67281;48.770;11.440;2023-10-09T12:22:07;21.35;;;5.57;;
78072;SDS011;67281;48.770;11.440;2023-10-09T12:24:43;31.00;;;6.57;;
78072;SDS011;67281;48.770;11.440;2023-10-09T12:27:10;25.52;;;5.72;;
78072;SDS011;67281;48.770;11.440;2023-10-09T12:29:38;26.20;;;6.25;;
78072;SDS011;67281;48.770;11.440;2023-10-09T12:32:14;23.35;;;6.55;;
78072;SDS011;67281;48.770;11.440;2023-10-09T12:34:46;22.23;;;5.55;;
78072;SDS011;67281;48.770;11.440;2023-10-09T12:37:17;21.83;;;6.03;;
78072;SDS011;67281;48.770;11.440;2023-10-09T12:39:47;21.92;;;6.05;;
78072;SDS011;67281;48.770;11.440;2023-10-09T12:42:14;24.55;;;5.95;;
78072;SDS011;67281;48.770;11.440;2023-10-09T12:44:43;18.73;;;5.68;;
78072;SDS011;67281;48.770;11.440;2023-10-09T12:47:11;17.50;;;5.57;;
78072;SDS011;67281;48.770;11.440;2023-10-09T12:49:38;33.85;;;6.20;;
78072;SDS011;67281;48.770;11.440;2023-10-09T12:52:08;24.15;;;6.25;;
78072;SDS011;67281;48.770;11.440;2023-10-09T12:54:45;20.30;;;5.90;;
78072;SDS011;67281;48.770;11.440;2023-10-09T12:57:14;27.77;;;5.70;;
78072;SDS011;67281;48.770;11.440;2023-10-09T12:59:42;16.05;;;4.95;;
78072;SDS011;67281;48.770;11.440;2023-10-09T13:02:15;21.70;;;5.88;;
78072;SDS011;67281;48.770;11.440;2023-10-09T13:04:56;25.05;;;6.13;;
78072;SDS011;67281;48.770;11.440;2023-10-09T13:07:27;22.70;;;4.78;;
78072;SDS011;67281;48.770;11.440;2023-10-09T13:09:53;20.27;;;5.40;;
78072;SDS011;67281;48.770;11.440;2023-10-09T13:12:40;20.55;;;5.97;;
78072;SDS011;67281;48.770;11.440;2023-10-09T13:15:10;24.17;;;5.50;;
78072;SDS011;67281;48.770;11.440;2023-10-09T13:17:38;21.33;;;5.53;;
78072;SDS011;67281;48.770;11.440;2023-10-09T13:20:05;22.33;;;5.53;;
78072;SDS011;67281;48.770;11.440;2023-10-09T13:22:43;23.15;;;5.97;;
78072;SDS011;67281;48.770;11.440;2023-10-09T13:25:10;24.58;;;5.40;;
78072;SDS011;67281;48.770;11.440;2023-10-09T13:28:00;23.60;;;5.20;;
78072;SDS011;67281;48.770;11.440;2023-10-09T13:30:31;25.45;;;6.15;;
78072;SDS011;67281;48.770;11.440;2023-10-09T13:33:06;23.85;;;6.00;;
78072;SDS011;67281;48.770;11.440;2023-10-09T13:35:35;21.48;;;5.22;;
78072;SDS011;67281;48.770;11.440;2023-10-09T13:38:14;28.60;;;5.90;;
78072;SDS011;67281;48.770;11.440;2023-10-09T13:40:43;18.88;;;5.47;;
78072;SDS011;67281;48.770;11.440;2023-10-09T13:43:10;18.90;;;5.20;;
78072;SDS011;67281;48.770;11.440;2023-10-09T13:45:43;22.65;;;5.55;;
78072;SDS011;67281;48.770;11.440;2023-10-09T13:48:16;27.98;;;5.88;;
78072;SDS011;67281;48.770;11.440;2023-10-09T13:50:44;28.20;;;5.95;;
78072;SDS011;67281;48.770;11.440;2023-10-09T13:53:11;22.85;;;6.13;;
78072;SDS011;67281;48.770;11.440;2023-10-09T13:55:39;19.38;;;5.35;;
78072;SDS011;67281;48.770;11.440;2023-10-09T13:58:10;19.92;;;5.65;;
78072;SDS011;67281;48.770;11.440;2023-10-09T14:00:40;29.77;;;5.78;;
78072;SDS011;67281;48.770;11.440;2023-10-09T14:03:12;20.67;;;5.38;;
78072;SDS011;67281;48.770;11.440;2023-10-09T14:05:40;29.67;;;5.82;;
78072;SDS011;67281;48.770;11.440;2023-10-09T14:08:21;16.90;;;5.80;;
78072;SDS011;67281;48.770;11.440;2023-10-09T14:10:49;25.52;;;6.20;;
78072;SDS011;67281;48.770;11.440;2023-10-09T14:13:16;21.63;;;5.60;;
78072;SDS011;67281;48.770;11.440;2023-10-09T14:15:44;22.33;;;5.93;;
78072;SDS011;67281;48.770;11.440;2023-10-09T14:18:12;27.33;;;6.07;;
78072;SDS011;67281;48.770;11.440;2023-10-09T14:20:39;17.23;;;5.13;;
78072;SDS011;67281;48.770;11.440;2023-10-09T14:23:07;27.23;;;5.38;;
78072;SDS011;67281;48.770;11.440;2023-10-09T14:25:37;20.83;;;5.32;;
78072;SDS011;67281;48.770;11.440;2023-10-09T14:28:06;21.05;;;5.55;;
78072;SDS011;67281;48.770;11.440;2023-10-09T14:30:37;24.25;;;5.25;;
78072;SDS011;67281;48.770;11.440;2023-10-09T14:33:11;21.42;;;5.53;;
78072;SDS011;67281;48.770;11.440;2023-10-09T14:35:49;26.33;;;5.75;;
78072;SDS011;67281;48.770;11.440;2023-10-09T14:38:19;21.27;;;5.35;;
78072;SDS011;67281;48.770;11.440;2023-10-09T14:40:53;21.75;;;5.68;;
78072;SDS011;67281;48.770;11.440;2023-10-09T14:43:26;20.20;;;5.50;;
78072;SDS011;67281;48.770;11.440;2023-10-09T14:46:00;24.45;;;5.38;;
78072;SDS011;67281;48.770;11.440;2023-10-09T14:48:27;22.88;;;5.30;;
78072;SDS011;67281;48.770;11.440;2023-10-09T14:50:55;19.45;;;5.32;;
78072;SDS011;67281;48.770;11.440;2023-10-09T14:53:31;20.67;;;5.47;;
78072;SDS011;67281;48.770;11.440;2023-10-09T14:56:00;22.05;;;4.85;;
78072;SDS011;67281;48.770;11.440;2023-10-09T14:58:30;22.60;;;5.75;;
78072;SDS011;67281;48.770;11.440;2023-10-09T15:01:06;22.83;;;5.40;;
78072;SDS011;67281;48.770;11.440;2023-10-09T15:03:36;20.48;;;5.63;;
78072;SDS011;67281;48.770;11.440;2023-10-09T15:06:06;26.67;;;6.43;;
78072;SDS011;67281;48.770;11.440;2023-10-09T15:08:37;22.08;;;5.43;;
78072;SDS011;67281;48.770;11.440;2023-10-09T15:11:04;25.55;;;5.45;;
78072;SDS011;67281;48.770;11.440;2023-10-09T15:13:32;17.98;;;5.47;;
78072;SDS011;67281;48.770;11.440;2023-10-09T15:15:59;22.92;;;5.80;;
78072;SDS011;67281;48.770;11.440;2023-10-09T15:18:28;22.52;;;5.57;;
78072;SDS011;67281;48.770;11.440;2023-10-09T15:20:59;28.85;;;6.10;;
78072;SDS011;67281;48.770;11.440;2023-10-09T15:23:26;24.60;;;5.97;;
78072;SDS011;67281;48.770;11.440;2023-10-09T15:25:53;24.40;;;5.95;;
78072;SDS011;67281;48.770;11.440;2023-10-09T15:28:23;20.30;;;5.85;;
78072;SDS011;67281;48.770;11.440;2023-10-09T15:30:51;19.27;;;5.35;;
78072;SDS011;67281;48.770;11.440;2023-10-09T15:33:31;24.70;;;5.88;;
78072;SDS011;67281;48.770;11.440;2023-10-09T15:36:08;20.70;;;6.28;;
78072;SDS011;67281;48.770;11.440;2023-10-09T15:38:37;18.33;;;5.22;;
78072;SDS011;67281;48.770;11.440;2023-10-09T15:41:04;22.70;;;5.45;;
78072;SDS011;67281;48.770;11.440;2023-10-09T15:43:33;21.48;;;5.60;;
78072;SDS011;67281;48.770;11.440;2023-10-09T15:46:01;19.70;;;5.50;;
78072;SDS011;67281;48.770;11.440;2023-10-09T15:48:28;21.90;;;5.85;;